createdAt,value
2019-03-30T00:00:16.228Z,47.53
2019-03-30T00:01:16.220Z,47.86
2019-03-30T00:02:16.206Z,46.08
2019-03-30T00:03:16.211Z,47.21
2019-03-30T00:04:16.218Z,46.73
2019-03-30T00:05:16.216Z,47.37
2019-03-30T00:06:16.193Z,47.37
2019-03-30T00:07:16.187Z,45.60
2019-03-30T00:08:16.183Z,45.28
2019-03-30T00:09:16.182Z,46.41
2019-03-30T00:10:16.175Z,46.08
2019-03-30T00:11:16.197Z,45.60
2019-03-30T00:12:16.187Z,47.05
2019-03-30T00:13:16.152Z,47.53
2019-03-30T00:14:17.160Z,47.86
2019-03-30T00:15:16.157Z,47.21
2019-03-30T00:16:16.147Z,47.21
2019-03-30T00:17:16.131Z,50.27
2019-03-30T00:18:16.142Z,50.76
2019-03-30T00:19:16.138Z,51.88
2019-03-30T00:20:16.112Z,49.79
2019-03-30T00:21:16.098Z,52.85
2019-03-30T00:22:16.089Z,51.72
2019-03-30T00:23:16.095Z,50.27
2019-03-30T00:24:16.153Z,47.70
2019-03-30T00:25:16.080Z,48.50
2019-03-30T00:26:16.072Z,47.86
2019-03-30T00:27:16.088Z,46.41
2019-03-30T00:28:16.083Z,47.05
2019-03-30T00:29:16.078Z,46.08
2019-03-30T00:30:18.996Z,46.57
2019-03-30T00:31:16.064Z,48.18
2019-03-30T00:32:16.052Z,43.99
2019-03-30T00:33:16.049Z,44.96
2019-03-30T00:34:16.039Z,47.37
2019-03-30T00:35:16.043Z,47.37
2019-03-30T00:36:16.028Z,47.53
2019-03-30T00:37:16.013Z,47.53
2019-03-30T00:38:16.010Z,47.70
2019-03-30T00:39:16.013Z,47.21
2019-03-30T00:40:15.990Z,47.70
2019-03-30T00:41:15.976Z,48.02
2019-03-30T00:42:15.967Z,47.53
2019-03-30T00:43:15.964Z,46.57
2019-03-30T00:44:15.968Z,47.70
2019-03-30T00:45:15.966Z,45.44
2019-03-30T00:46:15.939Z,47.21
2019-03-30T00:47:15.921Z,46.25
2019-03-30T00:48:15.916Z,47.37
2019-03-30T00:49:15.941Z,47.86
2019-03-30T00:50:15.912Z,46.08
2019-03-30T00:51:15.933Z,46.57
2019-03-30T00:52:15.915Z,45.44
2019-03-30T00:53:15.891Z,46.41
2019-03-30T00:54:15.902Z,45.92
2019-03-30T00:55:15.881Z,44.96
2019-03-30T00:56:15.876Z,45.12
2019-03-30T00:57:15.863Z,46.41
2019-03-30T00:58:15.870Z,46.41
2019-03-30T00:59:15.874Z,45.44
2019-03-30T01:00:15.861Z,46.08
2019-03-30T01:01:15.862Z,46.73
2019-03-30T01:02:15.847Z,45.76
2019-03-30T01:03:15.829Z,45.44
2019-03-30T01:04:15.834Z,43.18
2019-03-30T01:05:15.811Z,43.02
2019-03-30T01:06:15.812Z,46.41
2019-03-30T01:07:15.807Z,49.31
2019-03-30T01:08:15.799Z,50.43
2019-03-30T01:09:15.803Z,47.53
2019-03-30T01:10:15.803Z,48.98
2019-03-30T01:11:15.777Z,47.53
2019-03-30T01:12:15.771Z,48.34
2019-03-30T01:13:15.785Z,47.21
2019-03-30T01:14:15.795Z,48.02
2019-03-30T01:15:15.848Z,46.57
2019-03-30T01:16:15.767Z,46.89
2019-03-30T01:17:15.766Z,45.44
2019-03-30T01:18:15.832Z,47.05
2019-03-30T01:19:15.767Z,45.12
2019-03-30T01:20:15.743Z,46.41
2019-03-30T01:21:15.735Z,49.63
2019-03-30T01:22:15.724Z,48.50
2019-03-30T01:23:15.720Z,46.57
2019-03-30T01:24:15.716Z,44.79
2019-03-30T01:25:15.728Z,44.96
2019-03-30T01:26:15.705Z,44.15
2019-03-30T01:27:15.685Z,46.57
2019-03-30T01:28:15.682Z,46.89
2019-03-30T01:29:15.679Z,47.21
2019-03-30T01:30:23.093Z,45.92
2019-03-30T01:31:17.646Z,45.60
2019-03-30T01:32:15.661Z,45.92
2019-03-30T01:33:15.639Z,47.37
2019-03-30T01:34:15.659Z,46.57
2019-03-30T01:35:15.730Z,43.83
2019-03-30T01:36:15.623Z,46.08
2019-03-30T01:37:15.622Z,45.44
2019-03-30T01:38:15.621Z,45.28
2019-03-30T01:39:15.612Z,46.57
2019-03-30T01:40:15.594Z,46.25
2019-03-30T01:41:15.588Z,45.92
2019-03-30T01:42:15.577Z,46.25
2019-03-30T01:43:15.572Z,46.57
2019-03-30T01:44:15.576Z,44.63
2019-03-30T01:45:15.561Z,45.92
2019-03-30T01:46:15.561Z,45.76
2019-03-30T01:47:15.544Z,46.08
2019-03-30T01:48:15.546Z,46.73
2019-03-30T01:49:15.565Z,46.25
2019-03-30T01:50:17.782Z,47.70
2019-03-30T01:51:16.530Z,48.02
2019-03-30T01:52:15.522Z,47.05
2019-03-30T01:53:15.518Z,45.44
2019-03-30T01:54:15.530Z,46.41
2019-03-30T01:55:15.512Z,47.86
2019-03-30T01:56:16.500Z,47.86
2019-03-30T01:57:15.495Z,48.66
2019-03-30T01:58:15.477Z,47.37
2019-03-30T01:59:15.474Z,49.47
2019-03-30T02:00:15.466Z,47.37
2019-03-30T02:01:15.473Z,44.63
2019-03-30T02:02:15.442Z,46.41
2019-03-30T02:03:16.450Z,45.60
2019-03-30T02:04:15.457Z,43.99
2019-03-30T02:05:15.443Z,43.34
2019-03-30T02:06:15.437Z,44.79
2019-03-30T02:07:15.417Z,44.47
2019-03-30T02:08:15.407Z,43.18
2019-03-30T02:09:15.444Z,45.12
2019-03-30T02:10:15.401Z,44.31
2019-03-30T02:11:15.395Z,43.34
2019-03-30T02:12:15.386Z,46.25
2019-03-30T02:13:15.395Z,46.25
2019-03-30T02:14:15.395Z,47.21
2019-03-30T02:15:15.365Z,48.02
2019-03-30T02:16:15.366Z,46.41
2019-03-30T02:17:15.356Z,45.44
2019-03-30T02:18:15.340Z,44.31
2019-03-30T02:19:15.348Z,44.47
2019-03-30T02:20:15.337Z,46.73
2019-03-30T02:21:15.317Z,44.79
2019-03-30T02:22:15.337Z,43.51
2019-03-30T02:23:15.322Z,46.08
2019-03-30T02:24:15.330Z,44.47
2019-03-30T02:25:15.326Z,46.89
2019-03-30T02:26:15.328Z,46.89
2019-03-30T02:27:15.323Z,47.53
2019-03-30T02:28:15.314Z,45.44
2019-03-30T02:29:15.318Z,44.63
2019-03-30T02:30:15.306Z,44.47
2019-03-30T02:31:15.296Z,44.15
2019-03-30T02:32:15.283Z,43.83
2019-03-30T02:33:15.335Z,45.44
2019-03-30T02:34:15.282Z,46.73
2019-03-30T02:35:15.261Z,45.28
2019-03-30T02:36:16.264Z,45.12
2019-03-30T02:37:15.249Z,46.08
2019-03-30T02:38:15.242Z,45.92
2019-03-30T02:39:15.249Z,46.89
2019-03-30T02:40:15.230Z,45.44
2019-03-30T02:41:15.215Z,45.60
2019-03-30T02:42:15.225Z,43.51
2019-03-30T02:43:15.214Z,45.12
2019-03-30T02:44:15.209Z,45.44
2019-03-30T02:45:15.209Z,46.08
2019-03-30T02:46:15.184Z,44.96
2019-03-30T02:47:15.190Z,45.76
2019-03-30T02:48:15.181Z,45.92
2019-03-30T02:49:15.184Z,44.96
2019-03-30T02:50:15.160Z,45.12
2019-03-30T02:51:15.158Z,43.67
2019-03-30T02:52:15.158Z,41.73
2019-03-30T02:53:15.139Z,45.76
2019-03-30T02:54:15.150Z,43.83
2019-03-30T02:55:15.129Z,45.44
2019-03-30T02:56:15.122Z,43.02
2019-03-30T02:57:15.116Z,43.99
2019-03-30T02:58:15.100Z,43.67
2019-03-30T02:59:15.122Z,43.18
2019-03-30T03:00:15.093Z,44.96
2019-03-30T03:01:15.106Z,45.44
2019-03-30T03:02:15.112Z,45.92
2019-03-30T03:03:15.114Z,49.31
2019-03-30T03:04:15.104Z,44.79
2019-03-30T03:05:15.117Z,44.79
2019-03-30T03:06:15.079Z,45.60
2019-03-30T03:07:15.075Z,47.05
2019-03-30T03:08:15.075Z,44.47
2019-03-30T03:09:15.065Z,46.25
2019-03-30T03:10:15.064Z,47.05
2019-03-30T03:11:15.045Z,46.25
2019-03-30T03:12:15.050Z,49.31
2019-03-30T03:13:15.047Z,47.21
2019-03-30T03:14:15.039Z,45.28
2019-03-30T03:15:15.037Z,45.92
2019-03-30T03:16:15.028Z,46.57
2019-03-30T03:17:15.010Z,46.25
2019-03-30T03:18:15.010Z,46.08
2019-03-30T03:19:15.000Z,45.76
2019-03-30T03:20:15.000Z,44.96
2019-03-30T03:21:14.982Z,44.47
2019-03-30T03:22:14.982Z,44.47
2019-03-30T03:23:14.987Z,44.79
2019-03-30T03:24:14.964Z,46.25
2019-03-30T03:25:14.972Z,47.37
2019-03-30T03:26:14.950Z,47.70
2019-03-30T03:27:14.947Z,48.50
2019-03-30T03:28:14.976Z,48.18
2019-03-30T03:29:14.942Z,50.27
2019-03-30T03:30:14.952Z,49.31
2019-03-30T03:31:14.929Z,47.86
2019-03-30T03:32:14.932Z,47.53
2019-03-30T03:33:14.920Z,47.21
2019-03-30T03:34:14.912Z,45.76
2019-03-30T03:35:14.935Z,49.31
2019-03-30T03:36:14.899Z,50.43
2019-03-30T03:37:14.893Z,51.24
2019-03-30T03:38:14.883Z,51.08
2019-03-30T03:39:14.878Z,49.15
2019-03-30T03:40:14.880Z,49.31
2019-03-30T03:41:14.865Z,50.76
2019-03-30T03:42:14.857Z,50.11
2019-03-30T03:43:14.869Z,49.79
2019-03-30T03:44:14.848Z,51.56
2019-03-30T03:45:14.848Z,53.01
2019-03-30T03:46:14.838Z,49.63
2019-03-30T03:47:14.814Z,49.47
2019-03-30T03:48:14.823Z,48.50
2019-03-30T03:49:14.806Z,48.34
2019-03-30T03:50:14.820Z,48.34
2019-03-30T03:51:25.561Z,47.05
2019-03-30T03:52:16.790Z,49.31
2019-03-30T03:53:14.784Z,48.66
2019-03-30T03:54:14.777Z,48.66
2019-03-30T03:55:14.787Z,47.05
2019-03-30T03:56:14.758Z,47.21
2019-03-30T03:57:14.767Z,49.63
2019-03-30T03:58:14.761Z,46.57
2019-03-30T03:59:14.762Z,46.73
2019-03-30T04:00:14.767Z,48.34
2019-03-30T04:01:14.749Z,48.98
2019-03-30T04:02:14.738Z,44.79
2019-03-30T04:03:14.745Z,45.92
2019-03-30T04:04:14.730Z,47.05
2019-03-30T04:05:14.728Z,46.08
2019-03-30T04:06:14.711Z,46.57
2019-03-30T04:07:14.722Z,46.41
2019-03-30T04:08:14.721Z,47.70
2019-03-30T04:09:14.722Z,48.02
2019-03-30T04:10:14.731Z,45.92
2019-03-30T04:11:14.711Z,48.98
2019-03-30T04:12:14.710Z,51.08
2019-03-30T04:13:14.695Z,47.37
2019-03-30T04:14:14.699Z,45.44
2019-03-30T04:15:14.696Z,47.70
2019-03-30T04:16:14.673Z,48.98
2019-03-30T04:17:14.679Z,49.63
2019-03-30T04:18:14.655Z,48.50
2019-03-30T04:19:14.652Z,47.37
2019-03-30T04:20:14.657Z,49.31
2019-03-30T04:21:14.666Z,49.63
2019-03-30T04:22:14.662Z,48.66
2019-03-30T04:23:14.650Z,49.31
2019-03-30T04:24:14.641Z,48.18
2019-03-30T04:25:14.650Z,49.79
2019-03-30T04:26:14.629Z,49.47
2019-03-30T04:27:14.655Z,52.37
2019-03-30T04:28:14.651Z,48.66
2019-03-30T04:29:14.632Z,46.08
2019-03-30T04:30:14.636Z,46.73
2019-03-30T04:31:14.618Z,45.76
2019-03-30T04:32:14.601Z,49.31
2019-03-30T04:33:14.607Z,48.50
2019-03-30T04:34:14.596Z,48.82
2019-03-30T04:35:14.595Z,49.31
2019-03-30T04:36:14.575Z,49.79
2019-03-30T04:37:14.595Z,47.70
2019-03-30T04:38:14.798Z,49.31
2019-03-30T04:39:14.585Z,48.18
2019-03-30T04:40:14.594Z,46.57
2019-03-30T04:41:14.574Z,43.51
2019-03-30T04:42:14.568Z,44.31
2019-03-30T04:43:14.567Z,44.96
2019-03-30T04:44:14.558Z,44.47
2019-03-30T04:45:14.553Z,44.47
2019-03-30T04:46:14.612Z,44.96
2019-03-30T04:47:14.530Z,45.44
2019-03-30T04:48:14.524Z,45.28
2019-03-30T04:49:14.523Z,47.53
2019-03-30T04:50:14.532Z,45.60
2019-03-30T04:51:14.494Z,45.92
2019-03-30T04:52:14.491Z,48.34
2019-03-30T04:53:14.482Z,46.41
2019-03-30T04:54:14.479Z,45.28
2019-03-30T04:55:14.495Z,48.02
2019-03-30T04:56:14.462Z,47.53
2019-03-30T04:57:14.476Z,44.79
2019-03-30T04:58:14.472Z,47.05
2019-03-30T04:59:14.464Z,46.73
2019-03-30T05:00:14.462Z,48.18
2019-03-30T05:01:14.457Z,47.21
2019-03-30T05:02:14.448Z,44.31
2019-03-30T05:03:14.444Z,45.92
2019-03-30T05:04:14.424Z,46.57
2019-03-30T05:05:14.430Z,45.12
2019-03-30T05:06:14.418Z,44.31
2019-03-30T05:07:14.404Z,46.41
2019-03-30T05:08:14.406Z,45.12
2019-03-30T05:09:14.435Z,43.99
2019-03-30T05:10:14.402Z,43.51
2019-03-30T05:11:14.376Z,43.99
2019-03-30T05:12:14.370Z,44.47
2019-03-30T05:13:14.375Z,44.15
2019-03-30T05:14:14.358Z,44.79
2019-03-30T05:15:14.358Z,44.31
2019-03-30T05:16:14.340Z,44.47
2019-03-30T05:17:14.335Z,45.76
2019-03-30T05:18:14.328Z,45.44
2019-03-30T05:19:14.341Z,45.12
2019-03-30T05:20:14.354Z,44.47
2019-03-30T05:21:14.313Z,45.60
2019-03-30T05:22:16.721Z,45.92
2019-03-30T05:23:15.308Z,46.73
2019-03-30T05:24:14.297Z,45.92
2019-03-30T05:25:14.305Z,47.05
2019-03-30T05:26:14.287Z,45.76
2019-03-30T05:27:14.274Z,44.96
2019-03-30T05:28:14.279Z,44.47
2019-03-30T05:29:14.258Z,46.89
2019-03-30T05:30:14.258Z,47.86
2019-03-30T05:31:14.260Z,45.92
2019-03-30T05:32:14.242Z,47.70
2019-03-30T05:33:14.235Z,45.28
2019-03-30T05:34:14.232Z,45.44
2019-03-30T05:35:14.224Z,46.73
2019-03-30T05:36:14.221Z,44.96
2019-03-30T05:37:14.204Z,46.08
2019-03-30T05:38:14.199Z,45.44
2019-03-30T05:39:14.194Z,46.25
2019-03-30T05:40:14.179Z,44.96
2019-03-30T05:41:14.189Z,44.96
2019-03-30T05:42:14.167Z,44.96
2019-03-30T05:43:14.164Z,45.12
2019-03-30T05:44:14.160Z,45.60
2019-03-30T05:45:14.145Z,46.89
2019-03-30T05:46:14.151Z,46.08
2019-03-30T05:47:14.142Z,46.08
2019-03-30T05:48:14.127Z,45.76
2019-03-30T05:49:14.120Z,46.41
2019-03-30T05:50:14.129Z,45.76
2019-03-30T05:51:14.126Z,45.92
2019-03-30T05:52:25.841Z,44.47
2019-03-30T05:53:16.098Z,45.28
2019-03-30T05:54:14.088Z,44.47
2019-03-30T05:55:14.092Z,44.79
2019-03-30T05:56:14.113Z,43.99
2019-03-30T05:57:14.090Z,43.99
2019-03-30T05:58:14.072Z,45.92
2019-03-30T05:59:14.063Z,44.63
2019-03-30T06:00:14.053Z,44.31
2019-03-30T06:01:14.066Z,45.44
2019-03-30T06:02:14.041Z,46.89
2019-03-30T06:03:14.039Z,45.44
2019-03-30T06:04:14.038Z,44.47
2019-03-30T06:05:14.086Z,45.92
2019-03-30T06:06:14.022Z,45.44
2019-03-30T06:07:14.004Z,46.25
2019-03-30T06:08:13.995Z,44.79
2019-03-30T06:09:13.990Z,45.44
2019-03-30T06:10:13.981Z,44.96
2019-03-30T06:11:13.989Z,45.60
2019-03-30T06:12:13.968Z,44.31
2019-03-30T06:13:13.973Z,44.63
2019-03-30T06:14:13.967Z,46.08
2019-03-30T06:15:13.954Z,45.76
2019-03-30T06:16:13.955Z,45.12
2019-03-30T06:17:13.935Z,44.79
2019-03-30T06:18:13.948Z,45.76
2019-03-30T06:19:13.943Z,44.96
2019-03-30T06:20:13.936Z,44.63
2019-03-30T06:21:13.939Z,44.96
2019-03-30T06:22:13.914Z,45.28
2019-03-30T06:23:13.907Z,47.05
2019-03-30T06:24:13.902Z,46.73
2019-03-30T06:25:13.902Z,46.25
2019-03-30T06:26:13.913Z,47.70
2019-03-30T06:27:13.901Z,44.15
2019-03-30T06:28:13.884Z,43.99
2019-03-30T06:29:13.899Z,44.47
2019-03-30T06:30:13.883Z,46.89
2019-03-30T06:31:14.897Z,44.15
2019-03-30T06:32:13.872Z,44.47
2019-03-30T06:33:13.892Z,46.25
2019-03-30T06:34:13.886Z,46.41
2019-03-30T06:35:13.876Z,45.76
2019-03-30T06:36:13.886Z,46.08
2019-03-30T06:37:13.872Z,47.21
2019-03-30T06:38:13.859Z,45.76
2019-03-30T06:39:13.849Z,46.08
2019-03-30T06:40:13.840Z,43.51
2019-03-30T06:41:13.841Z,43.34
2019-03-30T06:42:13.825Z,45.60
2019-03-30T06:43:13.817Z,45.44
2019-03-30T06:44:13.815Z,45.44
2019-03-30T06:45:13.802Z,43.51
2019-03-30T06:46:13.805Z,45.28
2019-03-30T06:47:13.801Z,44.63
2019-03-30T06:48:13.803Z,45.28
2019-03-30T06:49:13.790Z,46.08
2019-03-30T06:50:13.786Z,44.79
2019-03-30T06:51:13.791Z,44.31
2019-03-30T06:52:13.764Z,47.86
2019-03-30T06:53:13.763Z,45.44
2019-03-30T06:54:14.936Z,44.63
2019-03-30T06:55:14.744Z,45.44
2019-03-30T06:56:13.814Z,46.25
2019-03-30T06:57:13.742Z,44.79
2019-03-30T06:58:14.733Z,45.92
2019-03-30T06:59:13.716Z,45.12
2019-03-30T07:00:13.704Z,45.12
2019-03-30T07:01:13.724Z,44.31
2019-03-30T07:02:13.688Z,44.79
2019-03-30T07:03:13.682Z,44.96
2019-03-30T07:04:13.676Z,47.05
2019-03-30T07:05:13.667Z,46.57
2019-03-30T07:06:13.676Z,45.12
2019-03-30T07:07:13.646Z,45.44
2019-03-30T07:08:13.646Z,46.73
2019-03-30T07:09:13.639Z,46.57
2019-03-30T07:10:13.631Z,44.79
2019-03-30T07:11:21.119Z,45.60
2019-03-30T07:12:15.618Z,45.12
2019-03-30T07:13:13.605Z,45.92
2019-03-30T07:14:13.608Z,46.89
2019-03-30T07:15:13.596Z,45.44
2019-03-30T07:16:13.611Z,44.63
2019-03-30T07:17:13.585Z,45.44
2019-03-30T07:18:13.580Z,46.25
2019-03-30T07:19:13.594Z,45.44
2019-03-30T07:20:13.578Z,45.28
2019-03-30T07:21:13.584Z,44.79
2019-03-30T07:22:13.566Z,45.92
2019-03-30T07:23:13.563Z,46.57
2019-03-30T07:24:13.561Z,47.05
2019-03-30T07:25:13.617Z,45.92
2019-03-30T07:26:13.561Z,47.21
2019-03-30T07:27:13.542Z,47.05
2019-03-30T07:28:13.537Z,46.57
2019-03-30T07:29:13.529Z,46.73
2019-03-30T07:30:13.551Z,45.60
2019-03-30T07:31:13.548Z,47.21
2019-03-30T07:32:13.530Z,45.60
2019-03-30T07:33:13.521Z,46.57
2019-03-30T07:34:13.514Z,45.92
2019-03-30T07:35:13.512Z,45.12
2019-03-30T07:36:13.515Z,45.44
2019-03-30T07:37:13.512Z,46.08
2019-03-30T07:38:13.502Z,46.25
2019-03-30T07:39:13.488Z,46.57
2019-03-30T07:40:13.490Z,47.05
2019-03-30T07:41:13.497Z,46.57
2019-03-30T07:42:13.482Z,47.05
2019-03-30T07:43:13.466Z,46.73
2019-03-30T07:44:13.459Z,47.05
2019-03-30T07:45:13.446Z,45.92
2019-03-30T07:46:13.449Z,46.25
2019-03-30T07:47:13.433Z,47.05
2019-03-30T07:48:13.424Z,45.92
2019-03-30T07:49:13.414Z,46.57
2019-03-30T07:50:13.409Z,45.60
2019-03-30T07:51:13.417Z,46.25
2019-03-30T07:52:13.391Z,44.96
2019-03-30T07:53:25.515Z,43.99
2019-03-30T07:54:15.375Z,43.67
2019-03-30T07:55:13.374Z,44.47
2019-03-30T07:56:13.399Z,44.47
2019-03-30T07:57:17.284Z,46.41
2019-03-30T07:58:14.383Z,46.08
2019-03-30T07:59:13.367Z,45.44
2019-03-30T08:00:13.363Z,45.92
2019-03-30T08:01:13.366Z,46.57
2019-03-30T08:02:13.353Z,47.53
2019-03-30T08:03:13.355Z,46.41
2019-03-30T08:04:13.331Z,46.25
2019-03-30T08:05:13.329Z,45.76
2019-03-30T08:06:13.333Z,45.92
2019-03-30T08:07:13.308Z,45.92
2019-03-30T08:08:14.030Z,45.76
2019-03-30T08:09:13.294Z,46.25
2019-03-30T08:10:13.287Z,46.41
2019-03-30T08:11:14.518Z,47.53
2019-03-30T08:12:14.280Z,46.57
2019-03-30T08:13:13.259Z,45.44
2019-03-30T08:14:13.263Z,45.92
2019-03-30T08:15:13.250Z,45.92
2019-03-30T08:16:13.253Z,46.08
2019-03-30T08:17:13.234Z,45.44
2019-03-30T08:18:13.223Z,45.28
2019-03-30T08:19:13.217Z,46.08
2019-03-30T08:20:13.210Z,47.05
2019-03-30T08:21:13.208Z,45.92
2019-03-30T08:22:13.196Z,46.08
2019-03-30T08:23:13.213Z,47.21
2019-03-30T08:24:13.200Z,45.44
2019-03-30T08:25:13.194Z,47.05
2019-03-30T08:26:13.218Z,46.73
2019-03-30T08:27:13.186Z,56.07
2019-03-30T08:28:13.182Z,46.57
2019-03-30T08:29:13.172Z,50.76
2019-03-30T08:30:13.169Z,51.56
2019-03-30T08:31:13.166Z,50.27
2019-03-30T08:32:13.158Z,44.96
2019-03-30T08:33:13.141Z,44.15
2019-03-30T08:34:13.131Z,44.79
2019-03-30T08:35:13.120Z,45.44
2019-03-30T08:36:13.143Z,44.31
2019-03-30T08:37:13.116Z,44.96
2019-03-30T08:38:13.100Z,43.51
2019-03-30T08:39:13.088Z,43.67
2019-03-30T08:40:13.085Z,43.34
2019-03-30T08:41:13.092Z,43.34
2019-03-30T08:42:13.069Z,43.99
2019-03-30T08:43:13.065Z,43.99
2019-03-30T08:44:13.060Z,45.28
2019-03-30T08:45:13.042Z,45.76
2019-03-30T08:46:13.036Z,45.12
2019-03-30T08:47:13.038Z,44.15
2019-03-30T08:48:13.019Z,44.96
2019-03-30T08:49:13.040Z,44.15
2019-03-30T08:50:13.000Z,44.63
2019-03-30T08:51:14.003Z,44.15
2019-03-30T08:52:13.002Z,46.89
2019-03-30T08:53:12.981Z,43.83
2019-03-30T08:54:12.970Z,43.34
2019-03-30T08:55:12.966Z,44.79
2019-03-30T08:56:12.963Z,44.31
2019-03-30T08:57:12.965Z,45.12
2019-03-30T08:58:12.943Z,43.67
2019-03-30T08:59:12.939Z,44.63
2019-03-30T09:00:12.939Z,44.47
2019-03-30T09:01:12.919Z,44.47
2019-03-30T09:02:12.920Z,42.22
2019-03-30T09:03:12.907Z,42.38
2019-03-30T09:04:12.898Z,43.83
2019-03-30T09:05:12.914Z,43.02
2019-03-30T09:06:12.890Z,43.02
2019-03-30T09:07:12.893Z,42.54
2019-03-30T09:08:12.885Z,43.02
2019-03-30T09:09:12.870Z,43.18
2019-03-30T09:10:12.857Z,43.51
2019-03-30T09:11:12.854Z,43.51
2019-03-30T09:12:12.941Z,41.57
2019-03-30T09:13:12.833Z,43.18
2019-03-30T09:14:12.824Z,42.54
2019-03-30T09:15:12.818Z,42.70
2019-03-30T09:16:12.810Z,42.22
2019-03-30T09:17:12.815Z,42.06
2019-03-30T09:18:12.803Z,42.06
2019-03-30T09:19:12.795Z,42.06
2019-03-30T09:20:12.788Z,42.22
2019-03-30T09:21:12.775Z,42.70
2019-03-30T09:22:12.775Z,41.57
2019-03-30T09:23:12.757Z,41.57
2019-03-30T09:24:12.746Z,41.57
2019-03-30T09:25:12.737Z,41.57
2019-03-30T09:26:12.735Z,42.38
2019-03-30T09:27:12.740Z,42.22
2019-03-30T09:28:12.721Z,40.61
2019-03-30T09:29:12.710Z,41.73
2019-03-30T09:30:12.702Z,42.06
2019-03-30T09:31:12.696Z,42.06
2019-03-30T09:32:14.609Z,42.06
2019-03-30T09:33:13.694Z,42.06
2019-03-30T09:34:12.669Z,41.57
2019-03-30T09:35:12.661Z,40.77
2019-03-30T09:36:12.658Z,40.93
2019-03-30T09:37:12.666Z,41.41
2019-03-30T09:38:14.803Z,41.89
2019-03-30T09:39:13.635Z,41.25
2019-03-30T09:40:12.625Z,40.77
2019-03-30T09:41:12.622Z,40.77
2019-03-30T09:42:12.629Z,41.41
2019-03-30T09:43:12.606Z,41.09
2019-03-30T09:44:12.609Z,40.77
2019-03-30T09:45:12.593Z,40.77
2019-03-30T09:46:12.578Z,41.25
2019-03-30T09:47:12.593Z,40.77
2019-03-30T09:48:12.562Z,40.44
2019-03-30T09:49:12.558Z,40.44
2019-03-30T09:50:12.558Z,42.54
2019-03-30T09:51:12.542Z,42.06
2019-03-30T09:52:12.549Z,42.70
2019-03-30T09:53:12.533Z,43.02
2019-03-30T09:54:23.213Z,42.86
2019-03-30T09:55:14.519Z,43.83
2019-03-30T09:56:12.513Z,42.06
2019-03-30T09:57:12.520Z,41.57
2019-03-30T09:58:12.498Z,42.86
2019-03-30T09:59:12.493Z,43.02
2019-03-30T10:00:13.479Z,43.99
2019-03-30T10:01:12.468Z,41.89
2019-03-30T10:02:12.502Z,41.73
2019-03-30T10:03:12.457Z,40.77
2019-03-30T10:04:12.452Z,41.57
2019-03-30T10:05:12.442Z,41.25
2019-03-30T10:06:12.446Z,40.61
2019-03-30T10:07:12.439Z,40.61
2019-03-30T10:08:12.418Z,40.44
2019-03-30T10:09:12.417Z,41.57
2019-03-30T10:10:12.411Z,40.93
2019-03-30T10:11:12.399Z,41.09
2019-03-30T10:12:12.402Z,40.77
2019-03-30T10:13:12.387Z,40.44
2019-03-30T10:14:12.373Z,40.44
2019-03-30T10:15:12.366Z,40.28
2019-03-30T10:16:12.362Z,40.44
2019-03-30T10:17:12.371Z,40.28
2019-03-30T10:18:12.345Z,39.96
2019-03-30T10:19:12.342Z,40.28
2019-03-30T10:20:12.327Z,40.12
2019-03-30T10:21:12.322Z,40.44
2019-03-30T10:22:12.326Z,40.44
2019-03-30T10:23:12.305Z,40.44
2019-03-30T10:24:12.297Z,40.61
2019-03-30T10:25:12.297Z,40.61
2019-03-30T10:26:12.291Z,40.44
2019-03-30T10:27:12.287Z,41.09
2019-03-30T10:28:12.267Z,41.57
2019-03-30T10:29:12.262Z,43.83
2019-03-30T10:30:12.255Z,42.86
2019-03-30T10:31:12.247Z,40.28
2019-03-30T10:32:12.252Z,41.89
2019-03-30T10:33:12.246Z,42.86
2019-03-30T10:34:12.229Z,42.54
2019-03-30T10:35:12.224Z,43.99
2019-03-30T10:36:12.228Z,40.93
2019-03-30T10:37:12.237Z,43.34
2019-03-30T10:38:12.216Z,43.51
2019-03-30T10:39:12.214Z,44.47
2019-03-30T10:40:12.201Z,39.96
2019-03-30T10:41:12.199Z,40.61
2019-03-30T10:42:12.198Z,44.96
2019-03-30T10:43:12.240Z,40.28
2019-03-30T10:44:12.178Z,40.28
2019-03-30T10:45:12.176Z,43.83
2019-03-30T10:46:12.160Z,43.99
2019-03-30T10:47:12.170Z,43.67
2019-03-30T10:48:12.146Z,42.86
2019-03-30T10:49:12.146Z,40.28
2019-03-30T10:50:12.132Z,39.96
2019-03-30T10:51:12.125Z,40.61
2019-03-30T10:52:12.132Z,40.61
2019-03-30T10:53:12.125Z,44.31
2019-03-30T10:54:12.108Z,41.25
2019-03-30T10:55:12.106Z,41.25
2019-03-30T10:56:12.090Z,41.25
2019-03-30T10:57:12.103Z,41.09
2019-03-30T10:58:12.084Z,41.41
2019-03-30T10:59:12.068Z,41.41
2019-03-30T11:00:12.065Z,42.86
2019-03-30T11:01:12.057Z,42.70
2019-03-30T11:02:12.071Z,41.57
2019-03-30T11:03:12.044Z,41.41
2019-03-30T11:04:12.039Z,43.34
2019-03-30T11:05:12.028Z,41.73
2019-03-30T11:06:12.028Z,40.44
2019-03-30T11:07:12.024Z,40.28
2019-03-30T11:08:12.002Z,40.77
2019-03-30T11:09:12.005Z,40.77
2019-03-30T11:10:12.030Z,41.73
2019-03-30T11:11:11.991Z,41.25
2019-03-30T11:12:11.987Z,40.44
2019-03-30T11:13:11.974Z,40.28
2019-03-30T11:14:11.967Z,40.61
2019-03-30T11:15:11.962Z,40.28
2019-03-30T11:16:11.955Z,40.12
2019-03-30T11:17:11.961Z,40.77
2019-03-30T11:18:11.945Z,40.93
2019-03-30T11:19:11.943Z,40.28
2019-03-30T11:20:11.937Z,40.77
2019-03-30T11:21:11.927Z,41.25
2019-03-30T11:22:11.939Z,40.28
2019-03-30T11:23:11.915Z,40.77
2019-03-30T11:24:11.915Z,40.93
2019-03-30T11:25:11.902Z,41.25
2019-03-30T11:26:11.896Z,40.77
2019-03-30T11:27:11.902Z,41.57
2019-03-30T11:28:11.886Z,41.41
2019-03-30T11:29:11.873Z,44.63
2019-03-30T11:30:11.887Z,41.25
2019-03-30T11:31:11.875Z,41.09
2019-03-30T11:32:11.871Z,41.73
2019-03-30T11:33:11.875Z,41.57
2019-03-30T11:34:11.872Z,41.41
2019-03-30T11:35:11.860Z,41.25
2019-03-30T11:36:11.855Z,41.57
2019-03-30T11:37:11.855Z,41.89
2019-03-30T11:38:11.908Z,42.06
2019-03-30T11:39:11.831Z,41.89
2019-03-30T11:40:11.827Z,43.02
2019-03-30T11:41:11.812Z,42.54
2019-03-30T11:42:11.810Z,43.83
2019-03-30T11:43:11.819Z,42.06
2019-03-30T11:44:11.792Z,42.54
2019-03-30T11:45:11.790Z,42.06
2019-03-30T11:46:11.795Z,41.57
2019-03-30T11:47:11.775Z,41.73
2019-03-30T11:48:11.780Z,41.73
2019-03-30T11:49:11.761Z,41.41
2019-03-30T11:50:11.754Z,43.99
2019-03-30T11:51:11.742Z,44.15
2019-03-30T11:52:11.733Z,41.25
2019-03-30T11:53:11.740Z,42.70
2019-03-30T11:54:11.722Z,43.18
2019-03-30T11:55:21.740Z,40.93
2019-03-30T11:56:13.704Z,41.25
2019-03-30T11:57:11.700Z,42.22
2019-03-30T11:58:11.704Z,42.86
2019-03-30T11:59:11.685Z,42.86
2019-03-30T12:00:11.675Z,42.22
2019-03-30T12:01:11.673Z,41.89
2019-03-30T12:02:11.658Z,43.51
2019-03-30T12:03:11.665Z,42.54
2019-03-30T12:04:11.656Z,41.41
2019-03-30T12:05:11.645Z,42.22
2019-03-30T12:06:11.643Z,43.51
2019-03-30T12:07:11.623Z,42.54
2019-03-30T12:08:11.630Z,41.89
2019-03-30T12:09:11.611Z,42.38
2019-03-30T12:10:11.610Z,42.54
2019-03-30T12:11:11.604Z,43.18
2019-03-30T12:12:11.595Z,43.51
2019-03-30T12:13:11.599Z,41.41
2019-03-30T12:14:11.584Z,41.41
2019-03-30T12:15:11.582Z,41.89
2019-03-30T12:16:11.568Z,42.54
2019-03-30T12:17:11.563Z,41.25
2019-03-30T12:18:11.563Z,41.57
2019-03-30T12:19:11.605Z,43.51
2019-03-30T12:20:11.536Z,43.67
2019-03-30T12:21:11.537Z,43.51
2019-03-30T12:22:11.533Z,43.99
2019-03-30T12:23:11.530Z,43.18
2019-03-30T12:24:11.511Z,43.99
2019-03-30T12:25:11.504Z,41.57
2019-03-30T12:26:11.497Z,41.41
2019-03-30T12:27:11.493Z,40.77
2019-03-30T12:28:11.492Z,39.64
2019-03-30T12:29:11.479Z,39.64
2019-03-30T12:30:11.474Z,40.12
2019-03-30T12:31:11.463Z,41.09
2019-03-30T12:32:11.453Z,41.57
2019-03-30T12:33:11.459Z,41.41
2019-03-30T12:34:13.095Z,41.41
2019-03-30T12:35:12.435Z,42.38
2019-03-30T12:36:11.425Z,41.09
2019-03-30T12:37:11.415Z,40.77
2019-03-30T12:38:11.429Z,40.44
2019-03-30T12:39:11.397Z,40.93
2019-03-30T12:40:11.392Z,42.54
2019-03-30T12:41:11.387Z,41.89
2019-03-30T12:42:11.391Z,41.89
2019-03-30T12:43:11.399Z,43.99
2019-03-30T12:44:11.377Z,42.54
2019-03-30T12:45:11.391Z,42.06
2019-03-30T12:46:11.383Z,41.89
2019-03-30T12:47:11.377Z,41.73
2019-03-30T12:48:11.390Z,42.38
2019-03-30T12:49:11.362Z,41.89
2019-03-30T12:50:11.357Z,43.02
2019-03-30T12:51:11.364Z,42.38
2019-03-30T12:52:11.355Z,41.89